TOM1LA EGGW-LEPA
Flight info
| Callsign | TOM1LA |
|---|---|
| Flight time | N/A |
| Altitude | 35000 |
| Route | RODNI N27 ICTAM Q63 CPT N859 VAPID UN859 SOPIL DCT BALAN DCT EVPOK DCT NARAK DCT GAI DCT LOMRA DCT ROCAN DCT IBRAP DCT LUKEV DCT LORES |
| Aircraft | B738/M-SDE2E3FGHIRWXY/LB1 |
Departure
| Time | 2026-05-01 09:52 |
|---|---|
| Airport | London Luton Airport (EGGW) |
Arrival
| Time | N/A |
|---|---|
| Airport | Palma de Mallorca Airport (LEPA) |
| Time | Latitude | Longitude | Altitude | Speed | Heading |
|---|---|---|---|---|---|
| 2026-05-01 09:34 | 51.88035 | -0.38023 | 550 ft | 0 kts | 307° |
| 2026-05-01 09:43 | 51.88033 | -0.38020 | 522 ft | 3 kts | 307° |
| 2026-05-01 09:44 | 51.88010 | -0.37972 | 522 ft | 3 kts | 307° |
| 2026-05-01 09:44 | 51.87999 | -0.37948 | 522 ft | 3 kts | 307° |
| 2026-05-01 09:44 | 51.87998 | -0.37945 | 522 ft | 0 kts | 307° |
| 2026-05-01 09:46 | 51.87998 | -0.37974 | 522 ft | 4 kts | 256° |
| 2026-05-01 09:46 | 51.87970 | -0.37999 | 522 ft | 8 kts | 192° |
| 2026-05-01 09:47 | 51.87893 | -0.38012 | 522 ft | 13 kts | 174° |
| 2026-05-01 09:47 | 51.87816 | -0.37946 | 522 ft | 13 kts | 133° |
| 2026-05-01 09:47 | 51.87775 | -0.37825 | 522 ft | 12 kts | 115° |
| 2026-05-01 09:47 | 51.87739 | -0.37701 | 521 ft | 13 kts | 115° |
| 2026-05-01 09:48 | 51.87698 | -0.37558 | 519 ft | 14 kts | 114° |
| 2026-05-01 09:48 | 51.87626 | -0.37459 | 522 ft | 14 kts | 159° |
| 2026-05-01 09:48 | 51.87536 | -0.37473 | 520 ft | 13 kts | 206° |
| 2026-05-01 09:48 | 51.87493 | -0.37593 | 522 ft | 13 kts | 255° |
| 2026-05-01 09:49 | 51.87471 | -0.37730 | 522 ft | 12 kts | 255° |
| 2026-05-01 09:49 | 51.87446 | -0.37863 | 522 ft | 12 kts | 253° |
| 2026-05-01 09:49 | 51.87420 | -0.37992 | 523 ft | 12 kts | 245° |
| 2026-05-01 09:49 | 51.87366 | -0.38068 | 522 ft | 10 kts | 204° |
| 2026-05-01 09:50 | 51.87348 | -0.38081 | 522 ft | 2 kts | 204° |
| 2026-05-01 09:50 | 51.87329 | -0.38095 | 521 ft | 4 kts | 204° |
| 2026-05-01 09:50 | 51.87281 | -0.38114 | 522 ft | 10 kts | 190° |
| 2026-05-01 09:50 | 51.87253 | -0.38102 | 523 ft | 4 kts | 132° |
| 2026-05-01 09:51 | 51.87254 | -0.38052 | 523 ft | 1 kts | 72° |
| 2026-05-01 09:51 | 51.87264 | -0.37995 | 523 ft | 23 kts | 74° |
| 2026-05-01 09:51 | 51.87379 | -0.37338 | 521 ft | 97 kts | 75° |
| 2026-05-01 09:51 | 51.87618 | -0.35947 | 518 ft | 158 kts | 74° |
| 2026-05-01 09:52 | 51.87972 | -0.34120 | 1026 ft | 175 kts | 75° |
| 2026-05-01 09:52 | 51.88377 | -0.32197 | 1834 ft | 182 kts | 79° |
| 2026-05-01 09:52 | 51.88692 | -0.30222 | 2648 ft | 188 kts | 81° |
| 2026-05-01 09:52 | 51.89056 | -0.28008 | 2997 ft | 218 kts | 79° |
| 2026-05-01 09:53 | 51.89167 | -0.25525 | 3204 ft | 231 kts | 107° |
| 2026-05-01 09:53 | 51.88346 | -0.23307 | 3663 ft | 237 kts | 143° |
| 2026-05-01 09:53 | 51.86853 | -0.22269 | 3853 ft | 246 kts | 176° |
| 2026-05-01 09:53 | 51.85215 | -0.22956 | 3927 ft | 252 kts | 213° |
| 2026-05-01 09:54 | 51.84149 | -0.25160 | 3964 ft | 256 kts | 248° |
| 2026-05-01 09:54 | 51.83716 | -0.27994 | 3962 ft | 263 kts | 254° |
| 2026-05-01 09:54 | 51.83328 | -0.30893 | 3954 ft | 263 kts | 255° |
| 2026-05-01 09:54 | 51.82933 | -0.33771 | 4014 ft | 262 kts | 253° |
| 2026-05-01 09:55 | 51.82504 | -0.36648 | 4445 ft | 263 kts | 253° |
| 2026-05-01 09:55 | 51.82054 | -0.39515 | 4913 ft | 263 kts | 252° |
| 2026-05-01 09:55 | 51.81594 | -0.42378 | 4934 ft | 260 kts | 252° |
| 2026-05-01 09:55 | 51.81144 | -0.45188 | 4960 ft | 258 kts | 253° |
| 2026-05-01 09:56 | 51.80720 | -0.48004 | 4957 ft | 259 kts | 253° |
| 2026-05-01 09:56 | 51.80297 | -0.50827 | 5122 ft | 254 kts | 253° |
| 2026-05-01 09:56 | 51.79877 | -0.53613 | 5655 ft | 261 kts | 254° |
| 2026-05-01 09:56 | 51.79435 | -0.56507 | 6198 ft | 269 kts | 253° |
| 2026-05-01 09:57 | 51.78984 | -0.59448 | 6711 ft | 271 kts | 253° |
| 2026-05-01 09:57 | 51.78528 | -0.62416 | 7189 ft | 273 kts | 253° |
| 2026-05-01 09:57 | 51.78071 | -0.65402 | 7655 ft | 274 kts | 253° |
| 2026-05-01 09:57 | 51.77615 | -0.68387 | 8155 ft | 273 kts | 253° |
| 2026-05-01 09:58 | 51.77154 | -0.71382 | 8654 ft | 277 kts | 253° |
| 2026-05-01 09:58 | 51.76683 | -0.74423 | 9197 ft | 282 kts | 253° |
| 2026-05-01 09:58 | 51.76204 | -0.77466 | 9699 ft | 283 kts | 249° |
| 2026-05-01 09:58 | 51.75267 | -0.80237 | 10207 ft | 276 kts | 226° |
| 2026-05-01 09:59 | 51.73960 | -0.82433 | 10703 ft | 275 kts | 222° |
| 2026-05-01 09:59 | 51.72604 | -0.84623 | 11192 ft | 277 kts | 222° |
| 2026-05-01 09:59 | 51.71232 | -0.86828 | 11682 ft | 279 kts | 221° |
| 2026-05-01 09:59 | 51.69846 | -0.89037 | 12175 ft | 281 kts | 221° |
| 2026-05-01 10:00 | 51.68454 | -0.91256 | 12698 ft | 282 kts | 221° |
| 2026-05-01 10:00 | 51.67055 | -0.93490 | 13220 ft | 285 kts | 221° |
| 2026-05-01 10:00 | 51.65647 | -0.95744 | 13735 ft | 286 kts | 221° |
| 2026-05-01 10:00 | 51.64228 | -0.98010 | 14236 ft | 289 kts | 221° |
| 2026-05-01 10:01 | 51.63255 | -0.99563 | 14562 ft | 293 kts | 221° |
| 2026-05-01 10:01 | 51.61799 | -1.01886 | 15051 ft | 297 kts | 221° |
| 2026-05-01 10:01 | 51.60322 | -1.04231 | 15532 ft | 300 kts | 221° |
| 2026-05-01 10:01 | 51.58853 | -1.06559 | 16041 ft | 301 kts | 221° |
| 2026-05-01 10:02 | 51.57502 | -1.08700 | 16490 ft | 303 kts | 221° |
| 2026-05-01 10:02 | 51.56001 | -1.11078 | 17005 ft | 304 kts | 221° |
| 2026-05-01 10:02 | 51.54495 | -1.13459 | 17531 ft | 304 kts | 221° |
| 2026-05-01 10:02 | 51.52987 | -1.15840 | 18053 ft | 305 kts | 221° |
| 2026-05-01 10:03 | 51.51364 | -1.17928 | 18549 ft | 301 kts | 206° |
| 2026-05-01 10:03 | 51.49437 | -1.19227 | 19035 ft | 301 kts | 195° |
| 2026-05-01 10:03 | 51.47383 | -1.19960 | 19533 ft | 304 kts | 187° |
| 2026-05-01 10:03 | 51.45269 | -1.20264 | 20003 ft | 307 kts | 180° |
| 2026-05-01 10:04 | 51.43139 | -1.19986 | 20495 ft | 310 kts | 167° |
| 2026-05-01 10:04 | 51.41149 | -1.18629 | 20985 ft | 314 kts | 148° |
| 2026-05-01 10:04 | 51.39318 | -1.16702 | 21532 ft | 316 kts | 151° |
| 2026-05-01 10:04 | 51.37455 | -1.14808 | 22047 ft | 318 kts | 147° |
| 2026-05-01 10:05 | 51.35624 | -1.12791 | 22574 ft | 320 kts | 148° |
| 2026-05-01 10:05 | 51.33731 | -1.10923 | 23103 ft | 320 kts | 152° |
| 2026-05-01 10:05 | 51.31766 | -1.09236 | 23650 ft | 321 kts | 155° |
| 2026-05-01 10:05 | 51.29757 | -1.07683 | 24129 ft | 321 kts | 156° |
| 2026-05-01 10:06 | 51.27724 | -1.06184 | 24595 ft | 321 kts | 156° |
| 2026-05-01 10:06 | 51.25692 | -1.04705 | 25050 ft | 321 kts | 156° |
| 2026-05-01 10:06 | 51.23660 | -1.03230 | 25541 ft | 320 kts | 157° |
| 2026-05-01 10:06 | 51.21637 | -1.01761 | 26013 ft | 319 kts | 156° |
| 2026-05-01 10:07 | 51.19623 | -1.00299 | 26503 ft | 317 kts | 157° |
| 2026-05-01 10:07 | 51.17620 | -0.98846 | 27002 ft | 315 kts | 157° |
| 2026-05-01 10:07 | 51.16974 | -0.98377 | 27161 ft | 314 kts | 157° |
| 2026-05-01 10:07 | 51.16888 | -0.98315 | 27180 ft | 314 kts | 157° |